createdAt,value
2022-07-31T00:00:50.505Z,18.30
2022-07-31T00:03:18.728Z,19.30
2022-07-31T00:05:48.525Z,16.80
2022-07-31T00:08:16.606Z,18.30
2022-07-31T00:10:44.866Z,18.40
2022-07-31T00:13:14.126Z,18.90
2022-07-31T00:15:42.223Z,20.40
2022-07-31T00:18:10.399Z,18.40
2022-07-31T00:20:38.683Z,18.40
2022-07-31T00:23:08.755Z,19.30
2022-07-31T00:25:39.324Z,18.40
2022-07-31T00:28:08.544Z,18.60
2022-07-31T00:30:36.829Z,18.40
2022-07-31T00:33:05.222Z,18.40
2022-07-31T00:35:33.437Z,17.60
2022-07-31T00:38:25.758Z,19.90
2022-07-31T00:40:51.756Z,21.80
2022-07-31T00:43:19.892Z,17.30
2022-07-31T00:45:56.311Z,18.10
2022-07-31T00:48:27.965Z,17.90
2022-07-31T00:50:56.497Z,18.00
2022-07-31T00:53:24.727Z,19.20
2022-07-31T00:55:54.554Z,17.80
2022-07-31T00:58:22.952Z,17.70
2022-07-31T01:00:51.426Z,18.90
2022-07-31T01:03:20.010Z,17.60
2022-07-31T01:05:48.262Z,17.50
2022-07-31T01:08:17.384Z,18.10
2022-07-31T01:10:54.412Z,17.40
2022-07-31T01:14:18.652Z,17.40
2022-07-31T01:16:54.255Z,19.30
2022-07-31T01:19:39.653Z,17.40
2022-07-31T01:22:32.913Z,17.30
2022-07-31T01:25:10.932Z,18.30
2022-07-31T01:27:56.339Z,17.20
2022-07-31T01:30:31.372Z,17.30
2022-07-31T01:33:03.597Z,18.40
2022-07-31T01:35:36.280Z,17.30
2022-07-31T01:38:10.234Z,17.90
2022-07-31T01:40:44.328Z,17.40
2022-07-31T01:43:16.435Z,17.40
2022-07-31T01:45:48.970Z,17.50
2022-07-31T01:48:18.040Z,17.40
2022-07-31T01:50:50.622Z,17.50
2022-07-31T01:53:21.697Z,17.40
2022-07-31T01:56:02.926Z,17.40
2022-07-31T01:58:36.405Z,18.30
2022-07-31T02:01:09.097Z,17.70
2022-07-31T02:03:43.547Z,17.50
2022-07-31T02:06:16.150Z,17.60
2022-07-31T02:08:46.415Z,17.60
2022-07-31T02:11:16.936Z,17.70
2022-07-31T02:13:46.883Z,17.70
2022-07-31T02:16:18.983Z,17.90
2022-07-31T02:18:48.759Z,17.60
2022-07-31T02:21:17.344Z,17.70
2022-07-31T02:23:46.618Z,17.70
2022-07-31T02:26:18.039Z,17.60
2022-07-31T02:28:49.350Z,19.00
2022-07-31T02:31:20.275Z,19.10
2022-07-31T02:33:50.404Z,17.50
2022-07-31T02:36:19.348Z,18.50
2022-07-31T02:38:49.003Z,17.50
2022-07-31T02:41:18.937Z,17.60
2022-07-31T02:43:48.289Z,17.60
2022-07-31T02:46:18.345Z,17.80
2022-07-31T02:48:47.206Z,17.60
2022-07-31T02:51:15.743Z,17.70
2022-07-31T02:53:44.014Z,17.70
2022-07-31T02:56:13.289Z,20.10
2022-07-31T02:58:42.183Z,17.70
2022-07-31T03:01:10.799Z,17.80
2022-07-31T03:03:40.175Z,17.90
2022-07-31T03:06:08.358Z,17.90
2022-07-31T03:08:38.502Z,17.90
2022-07-31T03:11:06.541Z,17.90
2022-07-31T03:13:38.035Z,17.90
2022-07-31T03:16:08.254Z,17.90
2022-07-31T03:18:37.616Z,17.90
2022-07-31T03:21:07.910Z,19.90
2022-07-31T03:23:37.248Z,17.90
2022-07-31T03:26:06.460Z,18.00
2022-07-31T03:28:35.669Z,17.90
2022-07-31T03:31:03.696Z,20.30
2022-07-31T03:33:31.824Z,18.00
2022-07-31T03:36:00.248Z,18.00
2022-07-31T03:38:42.284Z,18.00
2022-07-31T03:41:11.616Z,18.00
2022-07-31T03:43:44.136Z,18.00
2022-07-31T03:46:18.002Z,18.00
2022-07-31T03:48:47.281Z,17.90
2022-07-31T03:51:16.693Z,17.90
2022-07-31T03:53:47.368Z,17.80
2022-07-31T03:56:17.245Z,17.90
2022-07-31T03:58:46.715Z,17.80
2022-07-31T04:01:20.733Z,19.20
2022-07-31T04:03:49.229Z,17.80
2022-07-31T04:06:18.656Z,17.80
2022-07-31T04:08:48.953Z,17.80
2022-07-31T04:11:17.764Z,16.70
2022-07-31T04:13:45.905Z,17.80
2022-07-31T04:16:14.028Z,17.80
2022-07-31T04:18:42.076Z,17.80
2022-07-31T04:21:18.709Z,19.90
2022-07-31T04:23:50.090Z,17.80
2022-07-31T04:26:20.100Z,17.80
2022-07-31T04:28:54.513Z,17.90
2022-07-31T04:31:22.572Z,19.40
2022-07-31T04:33:56.356Z,17.80
2022-07-31T04:36:30.039Z,19.00
2022-07-31T04:39:00.288Z,17.90
2022-07-31T04:41:29.008Z,17.90
2022-07-31T04:43:58.503Z,17.80
2022-07-31T04:46:26.762Z,16.40
2022-07-31T04:48:54.913Z,17.80
2022-07-31T04:51:25.053Z,17.80
2022-07-31T04:53:53.860Z,17.80
2022-07-31T04:56:36.183Z,17.90
2022-07-31T04:59:07.439Z,18.80
2022-07-31T05:01:35.777Z,17.90
2022-07-31T05:04:04.371Z,20.10
2022-07-31T05:06:37.175Z,18.10
2022-07-31T05:09:08.951Z,19.30
2022-07-31T05:11:41.367Z,18.20
2022-07-31T05:14:11.593Z,18.20
2022-07-31T05:16:39.944Z,18.30
2022-07-31T05:19:14.854Z,18.10
2022-07-31T05:21:49.666Z,18.30
2022-07-31T05:24:22.581Z,18.30
2022-07-31T05:27:03.016Z,18.30
2022-07-31T05:29:31.362Z,18.30
2022-07-31T05:32:01.176Z,18.30
2022-07-31T05:34:31.021Z,18.30
2022-07-31T05:37:01.015Z,18.90
2022-07-31T05:39:30.188Z,18.40
2022-07-31T05:41:58.447Z,18.40
2022-07-31T05:44:27.846Z,20.10
2022-07-31T05:49:24.025Z,20.40
2022-07-31T05:52:00.106Z,18.80
2022-07-31T05:54:28.249Z,22.20
2022-07-31T05:56:56.456Z,19.00
2022-07-31T05:59:25.082Z,15.90
2022-07-31T06:01:54.878Z,19.00
2022-07-31T06:04:23.521Z,19.10
2022-07-31T06:06:51.911Z,19.10
2022-07-31T06:09:20.123Z,19.10
2022-07-31T06:11:48.357Z,19.20
2022-07-31T06:14:16.705Z,19.20
2022-07-31T06:16:45.543Z,19.40
2022-07-31T06:19:15.629Z,19.60
2022-07-31T06:21:44.133Z,19.80
2022-07-31T06:24:12.641Z,18.40
2022-07-31T06:26:41.297Z,19.80
2022-07-31T06:29:10.958Z,20.10
2022-07-31T06:31:39.150Z,20.90
2022-07-31T06:34:07.560Z,20.30
2022-07-31T06:36:37.330Z,20.10
2022-07-31T06:39:05.833Z,20.00
2022-07-31T06:41:47.624Z,21.80
2022-07-31T06:44:16.657Z,20.20
2022-07-31T06:46:49.151Z,20.20
2022-07-31T06:49:18.331Z,22.50
2022-07-31T06:51:48.160Z,20.20
2022-07-31T06:54:16.329Z,20.20
2022-07-31T06:56:45.000Z,20.20
2022-07-31T06:59:13.240Z,17.30
2022-07-31T07:02:01.713Z,20.40
2022-07-31T07:04:58.417Z,16.70
2022-07-31T07:07:22.206Z,20.40
2022-07-31T07:09:50.464Z,20.30
2022-07-31T07:12:18.631Z,20.20
2022-07-31T07:14:50.661Z,20.30
2022-07-31T07:17:27.162Z,17.40
2022-07-31T07:19:57.660Z,20.40
2022-07-31T07:22:31.970Z,21.70
2022-07-31T07:25:02.291Z,20.60
2022-07-31T07:27:31.056Z,20.80
2022-07-31T07:30:01.115Z,22.40
2022-07-31T07:32:32.790Z,21.70
2022-07-31T07:35:01.054Z,21.10
2022-07-31T07:37:31.038Z,19.90
2022-07-31T07:40:09.826Z,23.00
2022-07-31T07:42:38.075Z,20.70
2022-07-31T07:45:08.346Z,20.90
2022-07-31T07:47:53.682Z,20.90
2022-07-31T07:50:26.977Z,20.90
2022-07-31T07:53:00.208Z,21.10
2022-07-31T07:55:28.623Z,19.90
2022-07-31T07:58:10.109Z,20.60
2022-07-31T08:00:43.727Z,20.90
2022-07-31T08:03:49.372Z,19.20
2022-07-31T08:06:01.975Z,21.00
2022-07-31T08:08:31.838Z,21.10
2022-07-31T08:11:01.355Z,21.10
2022-07-31T08:13:29.670Z,21.20
2022-07-31T08:15:58.746Z,20.20
2022-07-31T08:18:30.361Z,21.50
2022-07-31T08:20:58.449Z,21.70
2022-07-31T08:23:26.589Z,20.20
2022-07-31T08:25:56.167Z,21.30
2022-07-31T08:28:26.754Z,21.40
2022-07-31T08:30:55.469Z,20.10
2022-07-31T08:33:23.487Z,22.00
2022-07-31T08:35:51.636Z,21.40
2022-07-31T08:38:20.495Z,21.40
2022-07-31T08:40:48.795Z,21.30
2022-07-31T08:44:02.510Z,21.20
2022-07-31T08:46:08.553Z,21.10
2022-07-31T08:48:42.650Z,21.10
2022-07-31T08:51:13.991Z,21.30
2022-07-31T08:53:45.880Z,21.30
2022-07-31T08:56:15.599Z,21.60
2022-07-31T08:58:45.753Z,21.40
2022-07-31T09:01:14.808Z,21.60
2022-07-31T09:03:43.452Z,21.60
2022-07-31T09:06:12.537Z,21.70
2022-07-31T09:08:41.157Z,21.90
2022-07-31T09:11:12.022Z,21.80
2022-07-31T09:13:41.336Z,22.40
2022-07-31T09:16:11.581Z,22.00
2022-07-31T09:18:39.835Z,22.10
2022-07-31T09:21:09.077Z,22.20
2022-07-31T09:23:46.934Z,22.30
2022-07-31T09:26:15.343Z,21.50
2022-07-31T09:28:44.873Z,22.30
2022-07-31T09:31:15.042Z,22.60
2022-07-31T09:33:46.007Z,22.60
2022-07-31T09:36:14.876Z,22.90
2022-07-31T09:38:44.423Z,22.70
2022-07-31T09:41:56.499Z,22.80
2022-07-31T09:44:10.535Z,22.80
2022-07-31T09:46:44.487Z,23.20
2022-07-31T09:49:13.391Z,21.70
2022-07-31T09:51:43.170Z,23.20
2022-07-31T09:54:23.628Z,23.20
2022-07-31T09:56:52.442Z,21.00
2022-07-31T09:59:21.205Z,23.60
2022-07-31T10:01:51.292Z,23.30
2022-07-31T10:04:21.297Z,23.50
2022-07-31T10:06:51.355Z,24.50
2022-07-31T10:09:23.101Z,23.70
2022-07-31T10:11:54.919Z,23.40
2022-07-31T10:14:29.005Z,23.70
2022-07-31T10:17:04.813Z,23.80
2022-07-31T10:19:38.150Z,24.30
2022-07-31T10:22:07.698Z,24.40
2022-07-31T10:24:48.138Z,24.20
2022-07-31T10:27:17.329Z,21.80
2022-07-31T10:29:46.410Z,24.10
2022-07-31T10:32:16.096Z,24.20
2022-07-31T10:34:44.555Z,24.30
2022-07-31T10:37:20.152Z,24.40
2022-07-31T10:39:55.536Z,24.60
2022-07-31T10:42:36.726Z,24.60
2022-07-31T10:45:08.525Z,24.60
2022-07-31T10:47:38.847Z,24.70
2022-07-31T10:50:22.998Z,24.80
2022-07-31T10:52:51.429Z,24.70
2022-07-31T10:55:22.255Z,24.80
2022-07-31T10:57:56.749Z,24.90
2022-07-31T11:00:30.049Z,25.00
2022-07-31T11:02:59.740Z,25.30
2022-07-31T11:05:30.042Z,25.60
2022-07-31T11:08:03.086Z,25.50
2022-07-31T11:10:34.083Z,25.30
2022-07-31T11:13:04.339Z,25.20
2022-07-31T11:15:33.723Z,25.40
2022-07-31T11:18:26.483Z,25.60
2022-07-31T11:21:17.711Z,25.70
2022-07-31T11:23:57.611Z,25.90
2022-07-31T11:26:40.924Z,24.30
2022-07-31T11:29:59.153Z,26.80
2022-07-31T11:32:01.995Z,26.60
2022-07-31T11:34:32.288Z,26.60
2022-07-31T11:37:01.670Z,27.50
2022-07-31T11:39:36.914Z,25.20
2022-07-31T11:42:07.502Z,26.80
2022-07-31T11:44:36.356Z,26.40
2022-07-31T11:48:05.779Z,26.30
2022-07-31T11:50:03.820Z,26.00
2022-07-31T11:52:36.910Z,26.20
2022-07-31T11:55:09.415Z,27.00
2022-07-31T11:57:52.573Z,26.60
2022-07-31T12:00:29.200Z,26.10
2022-07-31T12:02:59.552Z,26.00
2022-07-31T12:05:37.734Z,25.90
2022-07-31T12:08:08.196Z,26.20
2022-07-31T12:10:37.257Z,25.80
2022-07-31T12:13:05.506Z,28.10
2022-07-31T12:15:34.456Z,25.90
2022-07-31T12:18:03.821Z,24.50
2022-07-31T12:20:36.338Z,26.00
2022-07-31T12:23:38.459Z,26.30
2022-07-31T12:26:01.711Z,26.50
2022-07-31T12:28:29.902Z,26.90
2022-07-31T12:31:00.525Z,27.30
2022-07-31T12:33:28.821Z,27.30
2022-07-31T12:35:58.708Z,27.20
2022-07-31T12:38:47.546Z,26.90
2022-07-31T12:41:16.879Z,27.20
2022-07-31T12:43:51.167Z,27.50
2022-07-31T12:46:22.091Z,27.80
2022-07-31T12:48:50.656Z,28.10
2022-07-31T12:51:44.635Z,28.10
2022-07-31T12:54:09.934Z,28.20
2022-07-31T12:56:39.607Z,27.70
2022-07-31T12:59:08.494Z,27.50
2022-07-31T13:01:37.048Z,28.50
2022-07-31T13:04:07.537Z,27.70
2022-07-31T13:06:38.855Z,27.70
2022-07-31T13:09:06.919Z,27.60
2022-07-31T13:11:45.726Z,28.20
2022-07-31T13:14:15.103Z,28.10
2022-07-31T13:16:43.529Z,27.80
2022-07-31T13:19:11.863Z,27.40
2022-07-31T13:21:49.504Z,27.10
2022-07-31T13:24:19.380Z,27.10
2022-07-31T13:26:48.341Z,27.20
2022-07-31T13:29:17.401Z,27.00
2022-07-31T13:31:46.242Z,27.00
2022-07-31T13:34:14.469Z,27.30
2022-07-31T13:36:44.113Z,27.50
2022-07-31T13:39:12.502Z,27.90
2022-07-31T13:41:41.777Z,27.40
2022-07-31T13:44:10.145Z,27.40
2022-07-31T13:46:38.509Z,27.70
2022-07-31T13:49:11.153Z,27.50
2022-07-31T13:51:39.902Z,27.30
2022-07-31T13:54:09.926Z,26.80
2022-07-31T13:56:43.286Z,27.20
2022-07-31T13:59:13.734Z,27.10
2022-07-31T14:02:03.439Z,27.20
2022-07-31T14:04:32.663Z,27.70
2022-07-31T14:07:04.219Z,27.50
2022-07-31T14:09:55.537Z,28.80
2022-07-31T14:12:29.995Z,26.20
2022-07-31T14:14:58.728Z,29.20
2022-07-31T14:25:22.256Z,27.90
2022-07-31T14:27:53.065Z,27.80
2022-07-31T14:30:21.850Z,27.50
2022-07-31T14:32:55.483Z,27.70
2022-07-31T14:35:23.531Z,26.20
2022-07-31T14:37:51.638Z,27.60
2022-07-31T14:40:21.130Z,27.60
2022-07-31T14:42:49.401Z,27.50
2022-07-31T14:45:17.419Z,27.30
2022-07-31T14:47:46.375Z,27.10
2022-07-31T14:50:19.077Z,27.00
2022-07-31T14:52:47.913Z,26.80
2022-07-31T14:55:15.915Z,26.90
2022-07-31T14:57:45.340Z,27.20
2022-07-31T15:00:14.380Z,27.90
2022-07-31T15:02:43.466Z,27.70
2022-07-31T15:06:39.473Z,28.50
2022-07-31T15:08:00.577Z,28.80
2022-07-31T15:10:31.709Z,28.70
2022-07-31T15:13:01.038Z,28.80
2022-07-31T15:15:29.846Z,28.30
2022-07-31T15:18:00.552Z,27.80
2022-07-31T15:20:32.655Z,26.70
2022-07-31T15:23:01.582Z,27.40
2022-07-31T15:25:29.924Z,27.20
2022-07-31T15:27:58.515Z,27.20
2022-07-31T15:30:28.654Z,27.20
2022-07-31T15:32:56.870Z,25.70
2022-07-31T15:35:25.161Z,27.40
2022-07-31T15:37:53.344Z,27.60
2022-07-31T15:40:21.468Z,27.60
2022-07-31T15:42:50.157Z,27.60
2022-07-31T15:45:20.864Z,28.10
2022-07-31T15:47:50.398Z,28.80
2022-07-31T15:50:20.265Z,29.40
2022-07-31T15:52:48.573Z,30.00
2022-07-31T15:55:18.773Z,29.90
2022-07-31T15:57:46.986Z,29.80
2022-07-31T16:00:16.079Z,30.00
2022-07-31T16:02:45.414Z,30.30
2022-07-31T16:05:20.122Z,31.30
2022-07-31T16:08:29.336Z,31.10
2022-07-31T16:10:39.082Z,30.50
2022-07-31T16:13:07.488Z,29.60
2022-07-31T16:15:36.406Z,30.00
2022-07-31T16:18:07.102Z,28.30
2022-07-31T16:20:39.565Z,28.10
2022-07-31T16:23:07.735Z,27.90
2022-07-31T16:25:35.798Z,27.90
2022-07-31T16:28:04.109Z,27.80
2022-07-31T16:30:32.666Z,27.50
2022-07-31T16:35:58.506Z,27.80
2022-07-31T16:39:18.428Z,28.60
2022-07-31T16:41:51.931Z,28.40
2022-07-31T16:44:23.453Z,28.20
2022-07-31T16:46:54.845Z,28.60
2022-07-31T16:49:36.068Z,28.70
2022-07-31T16:52:07.624Z,28.60
2022-07-31T16:54:35.805Z,30.30
2022-07-31T16:57:04.560Z,30.30
2022-07-31T16:59:33.378Z,30.60
2022-07-31T17:02:21.893Z,30.80
2022-07-31T17:04:54.029Z,31.20
2022-07-31T17:07:29.200Z,31.20
2022-07-31T17:09:57.916Z,31.00
2022-07-31T17:12:28.987Z,30.60
2022-07-31T17:15:00.131Z,26.80
2022-07-31T17:17:31.038Z,29.20
2022-07-31T17:20:00.286Z,28.50
2022-07-31T17:22:30.486Z,27.20
2022-07-31T17:24:59.002Z,28.20
2022-07-31T17:27:27.041Z,27.40
2022-07-31T17:29:55.496Z,27.20
2022-07-31T17:32:23.677Z,27.00
2022-07-31T17:34:51.970Z,27.20
2022-07-31T17:37:24.630Z,27.30
2022-07-31T17:39:56.373Z,26.70
2022-07-31T17:42:27.454Z,26.70
2022-07-31T17:44:58.942Z,25.50
2022-07-31T17:47:27.505Z,26.50
2022-07-31T17:49:55.902Z,26.50
2022-07-31T17:52:24.258Z,26.40
2022-07-31T17:54:54.684Z,26.80
2022-07-31T17:57:23.732Z,26.60
2022-07-31T17:59:53.286Z,26.70
2022-07-31T18:02:21.803Z,26.60
2022-07-31T18:04:50.188Z,26.50
2022-07-31T18:07:19.792Z,26.40
2022-07-31T18:09:48.182Z,26.40
2022-07-31T18:12:17.815Z,26.40
2022-07-31T18:14:47.103Z,26.40
2022-07-31T18:17:15.362Z,26.40
2022-07-31T18:19:43.768Z,26.60
2022-07-31T18:22:12.043Z,26.50
2022-07-31T18:24:40.424Z,26.40
2022-07-31T18:27:08.836Z,26.00
2022-07-31T18:29:38.914Z,25.90
2022-07-31T18:32:09.348Z,25.80
2022-07-31T18:34:38.394Z,25.60
2022-07-31T18:37:07.134Z,25.60
2022-07-31T18:39:49.005Z,25.60
2022-07-31T18:42:17.933Z,25.70
2022-07-31T18:44:47.988Z,25.50
2022-07-31T18:47:16.238Z,25.60
2022-07-31T18:51:03.193Z,25.30
2022-07-31T18:52:32.945Z,25.30
2022-07-31T18:55:01.596Z,25.30
2022-07-31T18:57:30.713Z,25.20
2022-07-31T19:00:00.715Z,25.10
2022-07-31T19:02:34.249Z,25.50
2022-07-31T19:05:02.815Z,25.00
2022-07-31T19:07:35.769Z,25.00
2022-07-31T19:10:08.744Z,24.90
2022-07-31T19:12:38.730Z,24.90
2022-07-31T19:15:09.812Z,25.00
2022-07-31T19:17:54.784Z,24.70
2022-07-31T19:20:53.867Z,24.90
2022-07-31T19:23:16.890Z,24.50
2022-07-31T19:26:01.994Z,24.80
2022-07-31T19:28:32.381Z,24.90
2022-07-31T19:31:02.658Z,24.50
2022-07-31T19:33:31.613Z,24.80
2022-07-31T19:36:02.162Z,24.50
2022-07-31T19:38:32.468Z,24.40
2022-07-31T19:41:01.277Z,24.40
2022-07-31T19:43:30.209Z,24.40
2022-07-31T19:46:10.550Z,24.40
2022-07-31T19:48:45.479Z,24.40
2022-07-31T19:51:15.726Z,24.40
2022-07-31T19:53:44.762Z,24.30
2022-07-31T19:56:20.145Z,24.30
2022-07-31T19:58:49.497Z,24.30
2022-07-31T20:01:20.245Z,23.70
2022-07-31T20:03:51.234Z,23.50
2022-07-31T20:06:23.555Z,22.50
2022-07-31T20:08:57.355Z,24.60
2022-07-31T20:11:26.755Z,24.20
2022-07-31T20:13:57.129Z,24.10
2022-07-31T20:16:26.770Z,25.00
2022-07-31T20:18:57.034Z,24.00
2022-07-31T20:21:25.460Z,24.10
2022-07-31T20:23:56.744Z,24.50
2022-07-31T20:26:25.599Z,24.10
2022-07-31T20:28:53.847Z,24.00
2022-07-31T20:31:22.210Z,23.90
2022-07-31T20:33:57.658Z,24.00
2022-07-31T20:36:27.965Z,24.00
2022-07-31T20:38:58.111Z,24.40
2022-07-31T20:41:27.339Z,24.60
2022-07-31T20:43:55.426Z,23.90
2022-07-31T20:46:23.572Z,23.90
2022-07-31T20:48:51.949Z,23.90
2022-07-31T20:51:23.275Z,23.90
2022-07-31T20:53:53.367Z,23.80
2022-07-31T20:56:22.162Z,23.70
2022-07-31T20:58:52.053Z,26.40
2022-07-31T21:01:21.106Z,20.70
2022-07-31T21:03:50.277Z,23.70
2022-07-31T21:06:35.646Z,22.20
2022-07-31T21:09:06.033Z,23.50
2022-07-31T21:11:34.295Z,23.80
2022-07-31T21:14:02.935Z,23.60
2022-07-31T21:16:31.012Z,23.60
2022-07-31T21:18:59.123Z,23.70
2022-07-31T21:21:27.225Z,22.50
2022-07-31T21:23:57.262Z,23.90
2022-07-31T21:26:28.416Z,23.60
2022-07-31T21:28:57.177Z,23.90
2022-07-31T21:31:25.841Z,23.60
2022-07-31T21:33:55.192Z,23.40
2022-07-31T21:36:23.940Z,23.40
2022-07-31T21:38:52.421Z,23.80
2022-07-31T21:41:39.199Z,23.30
2022-07-31T21:44:14.234Z,23.30
2022-07-31T21:46:51.823Z,23.60
2022-07-31T21:49:22.985Z,23.20
2022-07-31T21:51:52.791Z,23.10
2022-07-31T21:54:20.898Z,23.40
2022-07-31T21:56:49.052Z,22.40
2022-07-31T21:59:20.723Z,23.00
2022-07-31T22:01:57.748Z,23.00
2022-07-31T22:04:56.818Z,22.80
2022-07-31T22:07:33.282Z,22.80
2022-07-31T22:10:04.150Z,22.80
2022-07-31T22:12:38.318Z,22.70
2022-07-31T22:15:15.005Z,23.20
2022-07-31T22:17:43.429Z,22.70
2022-07-31T22:20:12.563Z,22.70
2022-07-31T22:22:42.264Z,22.70
2022-07-31T22:25:11.662Z,23.20
2022-07-31T22:27:56.478Z,22.70
2022-07-31T22:30:31.492Z,22.70
2022-07-31T22:33:01.602Z,22.80
2022-07-31T22:35:31.811Z,20.40
2022-07-31T22:37:59.927Z,22.70
2022-07-31T22:40:27.978Z,22.80
2022-07-31T22:42:58.423Z,22.70
2022-07-31T22:45:31.775Z,22.80
2022-07-31T22:48:00.035Z,22.70
2022-07-31T22:50:28.225Z,22.70
2022-07-31T22:52:57.482Z,22.70
2022-07-31T22:55:26.151Z,22.60
2022-07-31T22:57:54.114Z,22.60
2022-07-31T23:00:22.213Z,22.60
2022-07-31T23:02:51.736Z,21.30
2022-07-31T23:05:19.933Z,22.60
2022-07-31T23:07:48.155Z,22.60
2022-07-31T23:10:19.132Z,22.50
2022-07-31T23:12:47.286Z,22.50
2022-07-31T23:15:15.405Z,22.50
2022-07-31T23:17:43.418Z,22.50
2022-07-31T23:20:12.902Z,19.30
2022-07-31T23:22:40.951Z,24.20
2022-07-31T23:25:10.137Z,22.30
2022-07-31T23:27:38.371Z,22.30
2022-07-31T23:30:07.143Z,22.60
2022-07-31T23:32:35.324Z,22.20
2022-07-31T23:35:03.515Z,23.40
2022-07-31T23:37:32.831Z,22.10
2022-07-31T23:40:00.992Z,22.80
2022-07-31T23:42:40.031Z,22.10
2022-07-31T23:45:12.851Z,22.00
2022-07-31T23:47:54.719Z,22.10
2022-07-31T23:50:29.050Z,22.10
2022-07-31T23:53:00.651Z,22.10
2022-07-31T23:55:31.383Z,22.50
